Time;durP1;ratioP1;P1;durP2;ratioP2;P2;SDS_P1;SDS_P2;PMS_P1;PMS_P2;Temp;Humidity;BMP_temperature;BMP_pressure;BME280_temperature;BME280_humidity;BME280_pressure;Samples;Min_cycle;Max_cycle;Signal;HPM_P1;HPM_P2
2021/10/15 00:01:03;;;;;;;10.75;5.05;;;;;;;4.93;100.00;95217.75;5096488;28;20076;-71
2021/10/15 00:03:30;;;;;;;8.45;5.32;;;;;;;4.90;100.00;95208.63;5100161;28;20043;-71
2021/10/15 00:05:56;;;;;;;7.65;5.03;;;;;;;5.01;100.00;95220.22;5077049;28;20032;-71
2021/10/15 00:08:23;;;;;;;5.72;3.50;;;;;;;4.98;100.00;95212.84;5095334;28;20040;-71
2021/10/15 00:10:50;;;;;;;8.10;3.50;;;;;;;4.87;100.00;95208.19;5097664;28;20044;-71
2021/10/15 00:13:17;;;;;;;5.95;2.88;;;;;;;4.91;100.00;95206.84;5088812;28;20047;-70
2021/10/15 00:15:44;;;;;;;5.78;3.22;;;;;;;4.97;100.00;95199.16;5099884;28;20044;-70
2021/10/15 00:18:11;;;;;;;5.25;3.45;;;;;;;4.97;100.00;95203.53;5071852;28;20052;-70
2021/10/15 00:20:38;;;;;;;5.32;3.80;;;;;;;5.00;100.00;95203.13;5096218;28;20585;-70
2021/10/15 00:23:05;;;;;;;4.72;3.38;;;;;;;4.99;100.00;95198.97;5094427;28;20076;-71
2021/10/15 00:25:32;;;;;;;5.40;3.00;;;;;;;5.06;100.00;95194.66;5100847;28;20112;-71
2021/10/15 00:27:58;;;;;;;7.10;3.33;;;;;;;5.13;100.00;95197.28;5078989;28;20059;-71
2021/10/15 00:30:25;;;;;;;17.05;5.50;;;;;;;5.10;100.00;95193.28;5093197;28;20876;-71
2021/10/15 00:32:52;;;;;;;6.10;3.20;;;;;;;5.05;100.00;95200.78;5091321;28;20074;-70
2021/10/15 00:35:19;;;;;;;7.93;3.67;;;;;;;5.03;100.00;95189.06;5093974;28;20439;-71
2021/10/15 00:37:48;;;;;;;8.43;3.60;;;;;;;5.01;100.00;95184.09;5097561;28;20047;-71
2021/10/15 00:40:16;;;;;;;9.88;4.57;;;;;;;4.90;100.00;95187.19;5093945;28;20031;-71
2021/10/15 00:42:44;;;;;;;9.75;3.97;;;;;;;4.96;100.00;95186.44;5098650;28;20040;-71
2021/10/15 00:45:11;;;;;;;6.13;3.38;;;;;;;4.92;100.00;95190.38;5094124;28;20039;-71
2021/10/15 00:47:38;;;;;;;5.60;2.95;;;;;;;4.99;100.00;95186.06;5092056;28;20058;-70
2021/10/15 00:50:05;;;;;;;7.85;3.88;;;;;;;5.03;100.00;95189.84;5093098;28;20043;-71
2021/10/15 00:52:33;;;;;;;6.80;3.50;;;;;;;5.01;100.00;95178.94;5090765;28;20402;-71
2021/10/15 00:54:59;;;;;;;6.82;3.28;;;;;;;5.04;100.00;95173.41;5093704;28;20056;-72
2021/10/15 00:57:27;;;;;;;7.30;3.47;;;;;;;5.08;100.00;95178.97;5096312;28;20066;-71
2021/10/15 00:59:54;;;;;;;4.88;2.53;;;;;;;5.09;100.00;95171.03;5092043;28;20048;-71
2021/10/15 01:02:21;;;;;;;4.53;2.90;;;;;;;5.11;100.00;95174.25;5088896;28;20105;-71
2021/10/15 01:04:49;;;;;;;5.45;3.05;;;;;;;5.12;100.00;95169.88;5099453;28;20123;-71
2021/10/15 01:07:18;;;;;;;5.07;3.25;;;;;;;5.18;100.00;95174.25;5093186;28;20039;-71
2021/10/15 01:09:48;;;;;;;5.40;3.05;;;;;;;5.08;100.00;95153.97;5098922;28;20048;-71
2021/10/15 01:12:15;;;;;;;4.60;2.47;;;;;;;5.14;100.00;95163.50;5077471;28;20067;-71
2021/10/15 01:14:42;;;;;;;4.88;3.30;;;;;;;5.15;100.00;95157.38;5098367;28;22985;-71
2021/10/15 01:17:09;;;;;;;5.68;2.70;;;;;;;5.23;100.00;95156.44;5090070;28;20108;-71
2021/10/15 01:19:36;;;;;;;3.28;2.25;;;;;;;5.20;100.00;95140.50;5099644;28;20429;-71
2021/10/15 01:22:05;;;;;;;5.75;2.75;;;;;;;5.24;100.00;95146.88;5074491;28;20039;-70
2021/10/15 01:24:32;;;;;;;3.35;1.88;;;;;;;5.23;100.00;95145.31;5104620;28;20496;-71
2021/10/15 01:27:09;;;;;;;5.18;2.25;;;;;;;5.17;100.00;95147.66;5092118;28;20093;-71
2021/10/15 01:29:38;;;;;;;4.57;2.50;;;;;;;5.20;100.00;95145.69;5091885;28;20543;-71
2021/10/15 01:32:08;;;;;;;10.15;3.95;;;;;;;5.22;100.00;95146.28;5097764;28;20043;-71
2021/10/15 01:34:35;;;;;;;7.65;3.35;;;;;;;5.14;100.00;95140.28;5088222;28;20424;-71
2021/10/15 01:37:03;;;;;;;5.05;2.78;;;;;;;5.12;100.00;95131.94;5093809;28;20040;-71
2021/10/15 01:39:30;;;;;;;3.90;2.15;;;;;;;5.26;100.00;95144.94;5101538;28;20413;-71
2021/10/15 01:41:56;;;;;;;3.25;2.10;;;;;;;5.27;100.00;95146.50;5098063;28;20048;-71
2021/10/15 01:44:23;;;;;;;5.55;2.10;;;;;;;5.25;100.00;95138.16;5095598;28;20047;-71
2021/10/15 01:46:50;;;;;;;3.28;2.13;;;;;;;5.29;100.00;95144.53;5090221;28;20513;-71
2021/10/15 01:49:17;;;;;;;3.13;2.05;;;;;;;5.29;100.00;95131.63;5088689;28;20093;-71
2021/10/15 01:51:44;;;;;;;5.68;2.25;;;;;;;5.34;100.00;95131.84;5099327;28;20039;-71
2021/10/15 01:54:11;;;;;;;3.20;2.00;;;;;;;5.36;100.00;95135.81;5098543;28;20432;-71
2021/10/15 01:56:38;;;;;;;4.57;2.55;;;;;;;5.35;100.00;95128.28;5099060;28;20081;-70
2021/10/15 01:59:06;;;;;;;3.28;1.95;;;;;;;5.33;100.00;95125.91;5097157;28;20097;-71
2021/10/15 02:01:33;;;;;;;3.63;2.10;;;;;;;5.42;100.00;95136.06;5100058;28;20066;-71
2021/10/15 02:04:00;;;;;;;5.65;2.22;;;;;;;5.45;100.00;95123.56;5097325;28;20071;-71
2021/10/15 02:06:27;;;;;;;4.25;2.25;;;;;;;5.45;100.00;95115.81;5091799;28;20398;-71
2021/10/15 02:08:54;;;;;;;4.43;1.98;;;;;;;5.42;100.00;95113.63;5095803;28;20059;-70
2021/10/15 02:11:21;;;;;;;3.80;2.20;;;;;;;5.41;100.00;95109.44;5093972;28;20044;-70
2021/10/15 02:13:48;;;;;;;4.28;2.10;;;;;;;5.45;100.00;95118.38;5096761;28;20112;-71
2021/10/15 02:16:14;;;;;;;4.60;2.53;;;;;;;5.34;100.00;95121.53;5096685;28;20089;-71
2021/10/15 02:18:41;;;;;;;4.32;2.40;;;;;;;5.31;100.00;95114.16;5102340;28;20070;-71
2021/10/15 02:21:08;;;;;;;4.13;2.55;;;;;;;5.43;100.00;95125.53;5101103;28;20047;-71
2021/10/15 02:23:35;;;;;;;5.22;2.15;;;;;;;5.45;100.00;95118.38;5093655;28;20058;-71
2021/10/15 02:26:02;;;;;;;4.22;2.30;;;;;;;5.42;100.00;95123.97;5093918;28;20067;-70
2021/10/15 02:28:29;;;;;;;3.65;1.88;;;;;;;5.40;100.00;95125.91;5094769;28;20507;-71
2021/10/15 02:30:56;;;;;;;4.68;2.42;;;;;;;5.33;100.00;95125.09;5095330;28;20500;-71
2021/10/15 02:33:22;;;;;;;3.03;1.90;;;;;;;5.12;100.00;95119.00;5091568;28;20052;-71
2021/10/15 02:35:50;;;;;;;7.13;4.28;;;;;;;5.13;100.00;95125.78;5094961;28;20055;-71
2021/10/15 02:38:16;;;;;;;3.85;2.47;;;;;;;5.20;100.00;95117.28;5092184;28;20428;-71
2021/10/15 02:40:44;;;;;;;3.83;2.25;;;;;;;5.25;100.00;95117.50;5099675;28;20039;-70
2021/10/15 02:43:11;;;;;;;4.05;2.10;;;;;;;5.31;100.00;95119.31;5083491;28;20036;-71
2021/10/15 02:45:39;;;;;;;3.65;2.72;;;;;;;5.24;100.00;95118.47;5093716;28;20032;-71
2021/10/15 02:48:06;;;;;;;4.50;2.22;;;;;;;5.31;100.00;95111.56;5095646;28;20051;-71
2021/10/15 02:50:33;;;;;;;4.00;2.08;;;;;;;5.32;100.00;95113.16;5102375;28;20051;-71
2021/10/15 02:53:00;;;;;;;4.78;2.03;;;;;;;5.34;100.00;95106.03;5089820;28;20040;-70
2021/10/15 02:55:27;;;;;;;3.28;2.20;;;;;;;5.28;100.00;95106.81;5076579;28;20043;-71
2021/10/15 02:57:54;;;;;;;2.75;2.35;;;;;;;5.37;100.00;95105.66;5088009;28;20471;-71
2021/10/15 03:00:20;;;;;;;5.45;3.00;;;;;;;5.39;100.00;95097.72;5094808;28;20101;-68
2021/10/15 03:02:47;;;;;;;5.80;3.15;;;;;;;5.38;100.00;95102.06;5101648;28;20044;-69
2021/10/15 03:05:14;;;;;;;5.18;2.67;;;;;;;5.34;100.00;95104.22;5093352;28;20109;-70
2021/10/15 03:07:41;;;;;;;6.90;3.53;;;;;;;5.19;100.00;95098.41;5089140;28;20040;-70
2021/10/15 03:10:08;;;;;;;5.88;2.67;;;;;;;5.19;100.00;95097.63;5079529;28;20055;-70
2021/10/15 03:12:37;;;;;;;13.30;4.88;;;;;;;5.05;100.00;95102.69;5092338;28;20050;-70
2021/10/15 03:15:07;;;;;;;17.00;8.40;;;;;;;5.08;100.00;95104.91;5088926;28;20047;-69
2021/10/15 03:17:34;;;;;;;9.45;6.05;;;;;;;5.01;100.00;95098.09;5092093;28;20055;-70
2021/10/15 03:20:02;;;;;;;8.75;3.97;;;;;;;5.08;100.00;95097.16;5083377;28;20040;-70
2021/10/15 03:22:28;;;;;;;10.63;5.03;;;;;;;5.05;100.00;95101.91;5098623;28;20556;-70
2021/10/15 03:24:55;;;;;;;7.75;3.92;;;;;;;5.03;100.00;95099.50;5090660;28;20101;-70
2021/10/15 03:27:22;;;;;;;13.70;8.23;;;;;;;5.02;100.00;95092.72;5088935;28;20058;-70
2021/10/15 03:29:49;;;;;;;10.48;3.78;;;;;;;5.04;100.00;95080.47;5086333;28;20036;-70
2021/10/15 03:32:16;;;;;;;7.90;4.95;;;;;;;5.06;100.00;95082.81;5076525;28;20054;-70
2021/10/15 03:34:42;;;;;;;10.75;4.75;;;;;;;5.05;100.00;95087.19;5087542;28;20044;-70
2021/10/15 03:37:09;;;;;;;8.35;3.42;;;;;;;5.01;100.00;95086.00;5085504;28;20039;-69
2021/10/15 03:39:36;;;;;;;12.38;8.15;;;;;;;4.94;100.00;95090.31;5070432;28;20043;-70
2021/10/15 03:42:03;;;;;;;42.80;22.40;;;;;;;4.92;100.00;95092.28;5094949;28;20055;-70
2021/10/15 03:44:30;;;;;;;24.10;16.98;;;;;;;4.77;100.00;95080.28;5094842;28;20046;-70
2021/10/15 03:46:56;;;;;;;13.63;9.68;;;;;;;4.81;100.00;95080.72;5098180;28;20035;-70
2021/10/15 03:49:23;;;;;;;17.33;9.77;;;;;;;4.71;100.00;95072.50;5100816;28;20594;-70
2021/10/15 03:51:50;;;;;;;12.25;8.15;;;;;;;4.74;100.00;95080.66;5103922;28;20065;-70
2021/10/15 03:54:16;;;;;;;85.90;37.92;;;;;;;4.77;100.00;95087.22;5101223;28;20043;-70
2021/10/15 03:56:43;;;;;;;172.50;66.43;;;;;;;4.70;100.00;95074.28;5099987;28;20043;-70
2021/10/15 03:59:10;;;;;;;38.67;20.30;;;;;;;4.82;100.00;95066.00;5096895;28;20051;-70
2021/10/15 04:01:37;;;;;;;39.25;17.13;;;;;;;4.89;100.00;95065.06;5092881;28;20088;-70
2021/10/15 04:04:04;;;;;;;15.27;7.32;;;;;;;4.86;100.00;95056.91;5101635;28;20048;-70
2021/10/15 04:06:31;;;;;;;27.75;13.75;;;;;;;4.89;100.00;95061.69;5094045;28;20040;-70
2021/10/15 04:08:57;;;;;;;16.77;9.63;;;;;;;5.00;100.00;95066.31;5104944;28;20538;-70
2021/10/15 04:11:24;;;;;;;9.57;5.00;;;;;;;5.01;100.00;95064.56;5076847;28;20409;-69
2021/10/15 04:13:51;;;;;;;16.30;8.80;;;;;;;5.00;100.00;95063.72;5101143;28;20044;-70
2021/10/15 04:16:17;;;;;;;9.00;4.32;;;;;;;5.11;100.00;95065.81;5101294;28;20035;-70
2021/10/15 04:18:44;;;;;;;22.65;12.93;;;;;;;5.08;100.00;95061.00;5092008;28;20043;-70
2021/10/15 04:21:11;;;;;;;14.57;8.98;;;;;;;5.00;100.00;95061.16;5097150;28;20127;-70
2021/10/15 04:23:39;;;;;;;32.90;14.57;;;;;;;5.05;100.00;95063.97;5092197;28;20048;-70
2021/10/15 04:26:08;;;;;;;14.00;5.65;;;;;;;5.13;100.00;95063.00;5103328;28;20044;-70
2021/10/15 04:28:41;;;;;;;10.65;6.10;;;;;;;5.14;100.00;95065.41;5081363;28;20071;-70
2021/10/15 04:31:07;;;;;;;34.22;15.38;;;;;;;5.23;100.00;95068.63;5101026;28;20035;-70
2021/10/15 04:33:34;;;;;;;58.38;21.10;;;;;;;5.20;100.00;95068.22;5092142;28;20048;-70
2021/10/15 04:36:04;;;;;;;16.85;8.50;;;;;;;5.26;100.00;95072.63;5096085;28;20032;-70
2021/10/15 04:38:31;;;;;;;14.13;6.82;;;;;;;5.27;100.00;95075.00;5101943;28;20047;-69
2021/10/15 04:40:58;;;;;;;14.65;6.57;;;;;;;5.11;100.00;95081.28;5098882;28;20039;-70
2021/10/15 04:43:25;;;;;;;10.88;5.15;;;;;;;5.15;100.00;95079.91;5092603;28;20036;-70
2021/10/15 04:45:52;;;;;;;17.02;7.53;;;;;;;5.12;100.00;95062.22;5085981;28;20043;-70
2021/10/15 04:48:18;;;;;;;30.77;13.20;;;;;;;5.21;100.00;95072.41;5101608;28;20777;-70
2021/10/15 04:50:45;;;;;;;13.88;5.22;;;;;;;5.27;100.00;95066.47;5095618;28;20125;-70
2021/10/15 04:53:12;;;;;;;4.95;2.70;;;;;;;5.32;100.00;95077.00;5101131;28;20093;-70
2021/10/15 04:55:39;;;;;;;6.40;3.78;;;;;;;5.38;100.00;95081.41;5089883;28;20097;-69
2021/10/15 04:58:06;;;;;;;23.67;11.98;;;;;;;5.35;100.00;95079.22;5086719;28;20047;-70
2021/10/15 05:00:33;;;;;;;5.78;3.63;;;;;;;5.36;100.00;95083.38;5097715;28;20113;-69
2021/10/15 05:03:00;;;;;;;10.80;5.47;;;;;;;5.32;100.00;95061.50;5097485;28;20064;-70
2021/10/15 05:05:33;;;;;;;7.35;3.67;;;;;;;5.40;100.00;95079.41;5093337;28;20131;-70
2021/10/15 05:08:01;;;;;;;10.10;6.63;;;;;;;5.31;100.00;95083.16;5097527;28;20046;-70
2021/10/15 05:10:28;;;;;;;11.02;6.32;;;;;;;5.30;100.00;95073.81;5093086;28;20040;-70
2021/10/15 05:12:55;;;;;;;6.80;3.72;;;;;;;5.36;100.00;95080.81;5102057;28;20049;-70
2021/10/15 05:15:23;;;;;;;10.88;6.03;;;;;;;5.37;100.00;95090.16;5099469;28;20069;-69
2021/10/15 05:17:50;;;;;;;16.35;7.80;;;;;;;5.25;100.00;95086.50;5077223;28;20059;-70
2021/10/15 05:20:18;;;;;;;81.95;31.98;;;;;;;5.10;100.00;95099.56;5090981;28;20509;-70
2021/10/15 05:22:45;;;;;;;18.98;11.15;;;;;;;5.22;100.00;95099.78;5100624;28;20068;-70
2021/10/15 05:25:14;;;;;;;10.55;5.03;;;;;;;5.24;100.00;95085.72;5103719;28;20043;-70
2021/10/15 05:27:41;;;;;;;21.30;10.50;;;;;;;5.17;100.00;95075.34;5096146;28;20028;-69
2021/10/15 05:30:09;;;;;;;7.35;3.50;;;;;;;5.17;100.00;95075.34;5095945;28;20101;-69
2021/10/15 05:32:36;;;;;;;5.70;3.53;;;;;;;5.23;100.00;95083.34;5099486;28;20047;-69
2021/10/15 05:35:05;;;;;;;6.05;3.83;;;;;;;5.33;100.00;95083.75;5090694;28;20528;-69
2021/10/15 05:37:32;;;;;;;8.75;4.28;;;;;;;5.32;100.00;95071.84;5094615;28;20630;-69
2021/10/15 05:39:59;;;;;;;9.77;4.72;;;;;;;5.32;100.00;95061.50;5097959;28;20112;-70
2021/10/15 05:42:26;;;;;;;6.80;3.92;;;;;;;5.36;100.00;95063.50;5094658;28;20039;-69
2021/10/15 05:44:53;;;;;;;8.85;3.70;;;;;;;5.42;100.00;95067.13;5095335;28;20039;-70
2021/10/15 05:47:22;;;;;;;5.80;3.83;;;;;;;5.50;100.00;95059.19;5099016;28;20043;-69
2021/10/15 05:49:48;;;;;;;5.35;3.63;;;;;;;5.55;100.00;95067.16;5095839;28;20524;-70
2021/10/15 05:52:17;;;;;;;5.40;3.25;;;;;;;5.55;100.00;95080.09;5096458;28;20106;-70
2021/10/15 05:59:41;;;;;;;5.97;3.33;;;;;;;5.38;100.00;95078.03;5093279;28;20044;-70
2021/10/15 06:02:08;;;;;;;4.03;2.53;;;;;;;5.36;100.00;95075.63;5094148;28;20063;-70
2021/10/15 06:15:45;;;;;;;6.28;3.00;;;;;;;5.23;100.00;95073.78;5082937;28;20060;-70
2021/10/15 06:18:15;;;;;;;9.13;4.65;;;;;;;5.31;100.00;95070.25;5095538;28;20040;-72
2021/10/15 06:20:44;;;;;;;7.75;4.57;;;;;;;5.18;100.00;95055.47;5088612;28;20044;-71
2021/10/15 06:23:10;;;;;;;9.43;5.63;;;;;;;5.26;100.00;95062.28;5088343;28;20044;-71
2021/10/15 06:25:37;;;;;;;12.48;6.75;;;;;;;5.14;100.00;95044.75;5096055;28;20040;-72
2021/10/15 06:28:07;;;;;;;13.02;7.80;;;;;;;5.31;100.00;95059.91;5093621;28;20043;-70
2021/10/15 06:30:34;;;;;;;30.73;11.13;;;;;;;5.34;100.00;95065.50;5099099;28;20047;-69
2021/10/15 06:33:01;;;;;;;19.95;7.72;;;;;;;5.19;100.00;95057.09;5094576;28;20497;-69
2021/10/15 06:35:28;;;;;;;15.85;6.40;;;;;;;5.11;100.00;95047.72;5076818;28;20043;-69
2021/10/15 06:37:55;;;;;;;15.30;6.65;;;;;;;5.35;100.00;95066.31;5095909;28;20044;-69
2021/10/15 06:40:22;;;;;;;7.00;4.55;;;;;;;5.40;100.00;95069.09;5096303;28;20501;-69
2021/10/15 06:42:49;;;;;;;10.25;4.05;;;;;;;5.35;100.00;95072.25;5101712;28;20043;-69
2021/10/15 06:45:16;;;;;;;7.95;3.90;;;;;;;5.40;100.00;95078.63;5098767;28;20059;-69
2021/10/15 06:47:43;;;;;;;24.85;8.30;;;;;;;5.23;100.00;95068.63;5098642;28;20558;-70
2021/10/15 06:50:10;;;;;;;64.82;36.78;;;;;;;5.36;100.00;95067.88;5092706;28;20701;-69
2021/10/15 06:52:46;;;;;;;18.25;8.27;;;;;;;5.62;100.00;95067.22;5074166;28;20594;-69
2021/10/15 06:55:15;;;;;;;36.85;13.75;;;;;;;5.75;100.00;95058.69;5080990;28;20055;-70
2021/10/15 06:57:42;;;;;;;12.20;6.60;;;;;;;5.61;100.00;95064.81;5096418;28;20042;-69
2021/10/15 07:00:10;;;;;;;22.98;8.98;;;;;;;5.63;100.00;95063.63;5077634;28;20104;-69
2021/10/15 07:02:38;;;;;;;35.50;12.60;;;;;;;5.94;100.00;95068.28;5097338;28;20437;-70
2021/10/15 07:05:06;;;;;;;12.90;6.82;;;;;;;6.09;100.00;95067.34;5092263;28;20050;-69
2021/10/15 07:07:33;;;;;;;20.10;7.78;;;;;;;6.21;100.00;95050.25;5096490;28;20031;-69
2021/10/15 07:10:00;;;;;;;16.40;5.63;;;;;;;6.34;100.00;95051.25;5094348;28;20470;-70
2021/10/15 07:12:27;;;;;;;23.50;8.15;;;;;;;6.26;100.00;95047.06;5094762;28;20056;-70
2021/10/15 07:14:54;;;;;;;12.27;5.82;;;;;;;6.22;100.00;95051.06;5096395;28;20043;-70
2021/10/15 07:17:21;;;;;;;109.80;25.92;;;;;;;6.06;100.00;95057.38;5094920;28;20076;-70
2021/10/15 07:19:48;;;;;;;61.45;25.25;;;;;;;5.78;100.00;95055.72;5100229;28;20187;-70
2021/10/15 07:22:15;;;;;;;13.63;5.70;;;;;;;5.62;100.00;95056.88;5077857;28;20032;-70
2021/10/15 07:24:42;;;;;;;7.53;3.53;;;;;;;5.50;100.00;95059.19;5097836;28;20047;-70
2021/10/15 07:27:09;;;;;;;8.02;3.92;;;;;;;5.59;100.00;95062.41;5098040;28;20055;-70
2021/10/15 07:29:36;;;;;;;4.88;3.17;;;;;;;5.69;100.00;95056.88;5100939;28;20035;-70
2021/10/15 07:32:04;;;;;;;5.30;2.85;;;;;;;5.80;100.00;95065.84;5101818;28;20071;-70
2021/10/15 07:34:31;;;;;;;6.07;3.38;;;;;;;5.83;100.00;95058.50;5096719;28;20055;-70
2021/10/15 07:36:57;;;;;;;8.43;4.00;;;;;;;5.87;100.00;95070.06;5098972;28;20032;-72
2021/10/15 07:39:25;;;;;;;19.85;10.60;;;;;;;5.68;100.00;95055.28;5100610;28;20047;-71
2021/10/15 07:41:52;;;;;;;23.40;13.80;;;;;;;5.70;100.00;95063.63;5098711;28;20040;-70
2021/10/15 07:44:19;;;;;;;17.75;8.88;;;;;;;5.72;100.00;95066.81;5081342;28;20440;-71
2021/10/15 07:46:46;;;;;;;8.45;5.95;;;;;;;5.67;100.00;95053.69;5094651;28;20437;-71
2021/10/15 07:49:13;;;;;;;4.95;2.72;;;;;;;5.60;100.00;95063.19;5096780;28;20040;-70
2021/10/15 07:51:45;;;;;;;6.88;3.35;;;;;;;5.64;100.00;95064.44;5101375;28;20093;-71
2021/10/15 07:54:13;;;;;;;4.28;2.70;;;;;;;5.76;100.00;95057.69;5098106;28;20039;-70
2021/10/15 07:56:39;;;;;;;5.03;2.38;;;;;;;5.85;100.00;95051.38;5091323;28;20060;-69
2021/10/15 07:59:06;;;;;;;6.20;3.10;;;;;;;5.87;100.00;95044.22;5093595;28;20052;-71
2021/10/15 08:01:33;;;;;;;13.75;4.80;;;;;;;5.94;100.00;95050.19;5092396;28;20040;-70
2021/10/15 08:04:00;;;;;;;2.70;2.08;;;;;;;5.87;100.00;95049.38;5098125;28;20040;-72
2021/10/15 08:06:46;;;;;;;2.13;1.52;;;;;;;5.81;100.00;95047.56;5079589;28;20023;-71
2021/10/15 08:09:13;;;;;;;9.05;3.15;;;;;;;5.89;100.00;95056.94;5092849;28;20574;-71
2021/10/15 08:11:40;;;;;;;5.97;2.35;;;;;;;6.01;100.00;95046.84;5103700;28;20508;-70
2021/10/15 08:14:07;;;;;;;3.33;2.72;;;;;;;6.09;100.00;95051.84;5100044;28;20054;-71
2021/10/15 08:16:35;;;;;;;4.15;2.78;;;;;;;6.18;100.00;95050.66;5087565;28;20036;-71
2021/10/15 08:19:02;;;;;;;8.93;3.92;;;;;;;6.20;100.00;95043.47;5094189;28;20062;-71
2021/10/15 08:21:29;;;;;;;16.45;6.10;;;;;;;6.29;100.00;95041.50;5099951;28;20085;-69
2021/10/15 08:23:56;;;;;;;16.05;5.95;;;;;;;6.36;100.00;95026.00;5097623;28;20044;-69
2021/10/15 08:26:24;;;;;;;18.60;7.82;;;;;;;6.32;100.00;95026.38;5098196;28;20055;-70
2021/10/15 08:28:58;;;;;;;14.63;6.35;;;;;;;6.25;100.00;95029.97;5101381;28;20040;-70
2021/10/15 08:31:26;;;;;;;16.65;6.13;;;;;;;6.16;100.00;95029.38;5096728;28;20048;-70
2021/10/15 08:33:55;;;;;;;7.47;4.13;;;;;;;6.38;100.00;95024.78;5098350;28;20097;-70
2021/10/15 08:36:23;;;;;;;18.00;8.00;;;;;;;6.43;100.00;95029.38;5103413;28;20048;-70
2021/10/15 08:38:51;;;;;;;12.43;6.20;;;;;;;6.50;100.00;95022.41;5098123;28;20043;-69
2021/10/15 08:41:20;;;;;;;11.68;6.05;;;;;;;6.34;100.00;95017.59;5095760;28;20039;-69
2021/10/15 08:43:47;;;;;;;10.98;5.43;;;;;;;6.30;100.00;95020.63;5098744;28;20057;-70
2021/10/15 08:46:14;;;;;;;15.20;7.32;;;;;;;6.42;100.00;95027.78;5082823;28;20067;-69
2021/10/15 08:48:41;;;;;;;8.50;5.18;;;;;;;6.45;100.00;95022.19;5095099;28;20443;-69
2021/10/15 08:51:09;;;;;;;20.05;8.30;;;;;;;6.42;100.00;95017.41;5104175;28;20455;-69
2021/10/15 08:53:45;;;;;;;10.27;5.28;;;;;;;6.39;100.00;95016.03;5080653;28;20051;-68
2021/10/15 08:56:12;;;;;;;16.70;6.18;;;;;;;6.40;100.00;95009.06;5096927;28;20519;-69
2021/10/15 08:58:44;;;;;;;33.90;13.45;;;;;;;6.37;100.00;94996.53;5095992;28;20047;-69
2021/10/15 09:01:11;;;;;;;9.85;6.13;;;;;;;6.45;100.00;95004.09;5101693;28;20417;-69
2021/10/15 09:03:39;;;;;;;7.50;4.32;;;;;;;6.36;100.00;94990.56;5099061;28;20040;-69
2021/10/15 09:06:08;;;;;;;3.83;2.45;;;;;;;6.47;100.00;94999.50;5094938;28;20048;-69
2021/10/15 09:08:45;;;;;;;197.93;43.42;;;;;;;6.52;100.00;94999.72;5102345;28;20047;-69
2021/10/15 09:11:39;;;;;;;36.97;11.93;;;;;;;6.48;100.00;95004.50;5093946;28;20036;-69
2021/10/15 09:14:22;;;;;;;16.15;7.05;;;;;;;6.42;100.00;95009.66;5097720;28;20085;-68
2021/10/15 09:17:04;;;;;;;4.60;2.78;;;;;;;6.26;100.00;95016.81;5099155;28;20517;-69
2021/10/15 09:19:46;;;;;;;12.90;7.97;;;;;;;6.13;100.00;95015.03;5091351;28;20434;-69
2021/10/15 09:22:26;;;;;;;7.40;5.00;;;;;;;6.06;100.00;95016.03;5097105;28;20063;-69
2021/10/15 09:24:56;;;;;;;11.55;7.20;;;;;;;6.08;100.00;95024.38;5093857;28;20054;-69
2021/10/15 09:27:39;;;;;;;10.00;5.32;;;;;;;6.05;100.00;95024.75;5098034;28;20097;-69
2021/10/15 09:30:17;;;;;;;8.48;5.22;;;;;;;6.05;100.00;95019.59;5095235;28;20044;-69
2021/10/15 09:32:53;;;;;;;7.78;4.18;;;;;;;6.03;100.00;95026.75;5097797;28;20112;-68
2021/10/15 09:35:23;;;;;;;4.50;2.83;;;;;;;5.98;100.00;95024.78;5093821;28;20047;-69
2021/10/15 09:37:55;;;;;;;8.13;5.18;;;;;;;6.08;100.00;95024.38;5092054;28;20036;-70
2021/10/15 09:40:23;;;;;;;8.38;5.35;;;;;;;6.10;100.00;95024.97;5101169;28;20048;-69
2021/10/15 09:42:56;;;;;;;11.55;6.78;;;;;;;6.13;100.00;95027.16;5100186;28;20039;-69
2021/10/15 09:45:27;;;;;;;12.43;6.43;;;;;;;6.09;100.00;95031.94;5093724;28;20055;-69
2021/10/15 09:47:56;;;;;;;10.05;4.55;;;;;;;6.12;100.00;95030.72;5091691;28;20058;-69
2021/10/15 09:50:41;;;;;;;7.53;4.25;;;;;;;6.20;100.00;95032.34;5100171;28;20053;-68
2021/10/15 09:53:09;;;;;;;33.47;12.23;;;;;;;6.24;100.00;95042.09;5098186;28;20050;-69
2021/10/15 09:55:38;;;;;;;10.00;5.80;;;;;;;6.29;100.00;95037.13;5097362;28;20047;-69
2021/10/15 09:58:22;;;;;;;9.88;4.22;;;;;;;6.38;100.00;95034.34;5099127;28;20035;-69
2021/10/15 10:00:51;;;;;;;10.70;4.95;;;;;;;6.40;100.00;95032.34;5094783;28;20141;-69
2021/10/15 10:03:21;;;;;;;14.32;6.25;;;;;;;6.45;100.00;95035.13;5076693;28;20119;-68
2021/10/15 10:05:49;;;;;;;19.70;6.03;;;;;;;6.45;100.00;95040.31;5090583;28;20040;-69
2021/10/15 10:08:17;;;;;;;16.58;5.53;;;;;;;6.53;100.00;95036.72;5092742;28;21261;-68
2021/10/15 10:10:47;;;;;;;5.10;3.15;;;;;;;6.46;100.00;95031.53;5080477;28;20050;-68
2021/10/15 10:13:15;;;;;;;5.28;3.05;;;;;;;6.51;100.00;95034.31;5101481;28;20059;-69
2021/10/15 10:15:44;;;;;;;6.55;2.88;;;;;;;6.59;100.00;95030.72;5092407;28;20042;-69
2021/10/15 10:21:12;;;;;;;6.63;3.42;;;;;;;6.67;100.00;95008.03;5096296;28;20046;-68
2021/10/15 10:23:47;;;;;;;13.68;5.30;;;;;;;6.83;100.00;95012.00;5091262;28;20078;-71
2021/10/15 10:26:18;;;;;;;15.90;7.35;;;;;;;6.90;100.00;95001.63;5093291;28;20037;-69
2021/10/15 10:29:05;;;;;;;32.03;12.27;;;;;;;7.01;100.00;95000.97;5095470;28;20585;-70
2021/10/15 10:31:33;;;;;;;16.70;8.23;;;;;;;7.04;100.00;95003.19;5091720;28;20048;-70
2021/10/15 10:34:05;;;;;;;13.23;6.32;;;;;;;7.06;100.00;95001.19;5095526;28;20047;-70
2021/10/15 10:36:35;;;;;;;8.43;5.20;;;;;;;7.10;100.00;94995.59;5076621;28;20058;-70
2021/10/15 10:39:21;;;;;;;11.70;6.18;;;;;;;7.18;100.00;94987.56;5100891;28;20038;-70
2021/10/15 10:42:08;;;;;;;11.68;7.05;;;;;;;7.11;100.00;94966.88;5087653;28;20047;-70
2021/10/15 10:44:55;;;;;;;9.57;4.25;;;;;;;7.15;100.00;94977.63;5094554;28;20031;-70
2021/10/15 10:47:24;;;;;;;7.30;4.47;;;;;;;7.19;100.00;94979.59;5091447;28;20039;-70
2021/10/15 10:50:00;;;;;;;7.47;3.85;;;;;;;7.18;100.00;94974.63;5096251;28;20089;-70
2021/10/15 10:52:27;;;;;;;13.57;6.13;;;;;;;7.24;100.00;94966.84;5094980;28;20573;-70
2021/10/15 10:54:53;;;;;;;7.95;5.60;;;;;;;7.22;100.00;94968.03;5091240;28;20842;-70
2021/10/15 10:57:31;;;;;;;10.77;5.45;;;;;;;7.23;100.00;94964.44;5092939;28;20036;-70
2021/10/15 11:00:24;;;;;;;8.73;4.57;;;;;;;7.23;100.00;94959.25;5073405;28;20048;-70
2021/10/15 11:02:56;;;;;;;23.48;10.85;;;;;;;7.23;100.00;94956.69;5092484;28;20047;-70
2021/10/15 11:05:29;;;;;;;16.27;9.15;;;;;;;7.16;100.00;94953.31;5093707;28;20119;-70
2021/10/15 11:08:32;;;;;;;15.20;6.60;;;;;;;7.04;100.00;94953.97;5078020;28;20035;-71
2021/10/15 11:11:21;;;;;;;14.20;8.30;;;;;;;6.96;100.00;94958.56;5035112;28;20041;-71
2021/10/15 11:13:49;;;;;;;78.03;40.88;;;;;;;6.81;100.00;94956.25;5090007;28;20059;-71
2021/10/15 11:16:27;;;;;;;43.30;20.63;;;;;;;6.76;100.00;94948.28;5091525;28;20558;-71
2021/10/15 11:18:54;;;;;;;19.58;9.75;;;;;;;6.68;100.00;94946.69;5091981;28;20035;-71
2021/10/15 11:21:22;;;;;;;23.13;11.82;;;;;;;6.70;100.00;94945.50;5101860;28;20043;-70
2021/10/15 11:23:49;;;;;;;13.40;7.13;;;;;;;6.65;100.00;94941.94;5087223;28;20047;-71
2021/10/15 11:26:16;;;;;;;40.85;17.27;;;;;;;6.66;100.00;94933.97;5089363;28;20059;-71
2021/10/15 11:28:43;;;;;;;34.55;12.55;;;;;;;6.64;100.00;94933.38;5093223;28;20035;-70
2021/10/15 11:31:12;;;;;;;13.57;7.97;;;;;;;6.62;100.00;94932.00;5092387;28;20036;-71
2021/10/15 11:33:40;;;;;;;19.27;7.40;;;;;;;6.57;100.00;94930.03;5095143;28;20067;-70
2021/10/15 11:36:07;;;;;;;14.38;7.00;;;;;;;6.49;100.00;94932.81;5091690;28;20040;-70
2021/10/15 11:38:35;;;;;;;64.63;25.17;;;;;;;6.49;100.00;94919.88;5092728;28;20040;-71
2021/10/15 11:41:09;;;;;;;78.28;31.52;;;;;;;6.59;100.00;94917.69;5091132;28;20040;-71
2021/10/15 11:43:38;;;;;;;;;;;;;;;6.66;100.00;94913.28;5097208;28;20036;-71
2021/10/15 11:46:08;;;;;;;14.05;9.15;;;;;;;6.58;100.00;94905.72;5091679;28;20369;-71
2021/10/15 11:48:45;;;;;;;22.17;10.20;;;;;;;6.67;100.00;94912.25;5090941;28;20044;-70
2021/10/15 11:51:23;;;;;;;20.55;9.48;;;;;;;6.73;100.00;94902.88;5094608;28;20381;-71
2021/10/15 11:53:55;;;;;;;23.95;8.90;;;;;;;6.71;100.00;94899.72;5068746;28;20441;-70
2021/10/15 11:56:27;;;;;;;8.40;6.15;;;;;;;6.80;100.00;94887.34;5073271;28;20055;-71